sensor_id;sensor_type;location;lat;lon;timestamp;temperature;humidity
37868;DHT22;24011;48.880;9.190;2022-11-25T00:01:57;24.80;35.40
37868;DHT22;24011;48.880;9.190;2022-11-25T00:05:33;24.90;35.40
37868;DHT22;24011;48.880;9.190;2022-11-25T00:08:48;24.80;35.40
37868;DHT22;24011;48.880;9.190;2022-11-25T00:12:29;24.80;35.40
37868;DHT22;24011;48.880;9.190;2022-11-25T00:15:37;24.80;35.40
37868;DHT22;24011;48.880;9.190;2022-11-25T00:18:35;24.80;35.40
37868;DHT22;24011;48.880;9.190;2022-11-25T00:21:43;24.80;35.40
37868;DHT22;24011;48.880;9.190;2022-11-25T00:24:57;24.80;35.40
37868;DHT22;24011;48.880;9.190;2022-11-25T00:27:54;24.80;35.40
37868;DHT22;24011;48.880;9.190;2022-11-25T00:31:04;24.80;35.50
37868;DHT22;24011;48.880;9.190;2022-11-25T00:33:56;24.80;35.50
37868;DHT22;24011;48.880;9.190;2022-11-25T00:37:00;24.80;35.50
37868;DHT22;24011;48.880;9.190;2022-11-25T00:39:59;24.80;35.40
37868;DHT22;24011;48.880;9.190;2022-11-25T00:43:04;24.80;35.40
37868;DHT22;24011;48.880;9.190;2022-11-25T00:46:23;24.80;35.50
37868;DHT22;24011;48.880;9.190;2022-11-25T00:49:42;24.80;35.50
37868;DHT22;24011;48.880;9.190;2022-11-25T00:52:35;24.80;35.50
37868;DHT22;24011;48.880;9.190;2022-11-25T00:55:34;24.80;35.50
37868;DHT22;24011;48.880;9.190;2022-11-25T00:58:35;24.80;35.50
37868;DHT22;24011;48.880;9.190;2022-11-25T01:01:34;24.70;35.50
37868;DHT22;24011;48.880;9.190;2022-11-25T01:04:30;24.70;35.40
37868;DHT22;24011;48.880;9.190;2022-11-25T01:07:34;24.80;35.50
37868;DHT22;24011;48.880;9.190;2022-11-25T01:10:36;24.70;35.50
37868;DHT22;24011;48.880;9.190;2022-11-25T01:13:42;24.70;35.50
37868;DHT22;24011;48.880;9.190;2022-11-25T01:16:46;24.70;35.60
37868;DHT22;24011;48.880;9.190;2022-11-25T01:19:46;24.70;35.60
37868;DHT22;24011;48.880;9.190;2022-11-25T01:22:40;24.70;35.60
37868;DHT22;24011;48.880;9.190;2022-11-25T01:25:42;24.70;35.60
37868;DHT22;24011;48.880;9.190;2022-11-25T01:28:41;24.70;35.60
37868;DHT22;24011;48.880;9.190;2022-11-25T01:31:42;24.70;35.50
37868;DHT22;24011;48.880;9.190;2022-11-25T01:34:51;24.70;35.60
37868;DHT22;24011;48.880;9.190;2022-11-25T01:38:18;24.70;35.50
37868;DHT22;24011;48.880;9.190;2022-11-25T01:41:51;24.70;35.60
37868;DHT22;24011;48.880;9.190;2022-11-25T01:45:40;24.70;35.60
37868;DHT22;24011;48.880;9.190;2022-11-25T01:49:04;24.70;35.60
37868;DHT22;24011;48.880;9.190;2022-11-25T01:52:13;24.70;35.60
37868;DHT22;24011;48.880;9.190;2022-11-25T01:55:19;24.70;35.60
37868;DHT22;24011;48.880;9.190;2022-11-25T01:58:27;24.70;35.70
37868;DHT22;24011;48.880;9.190;2022-11-25T02:01:36;24.70;35.60
37868;DHT22;24011;48.880;9.190;2022-11-25T02:04:40;24.70;35.50
37868;DHT22;24011;48.880;9.190;2022-11-25T02:07:41;24.70;35.50
37868;DHT22;24011;48.880;9.190;2022-11-25T02:10:46;24.70;35.60
37868;DHT22;24011;48.880;9.190;2022-11-25T02:13:51;24.70;35.60
37868;DHT22;24011;48.880;9.190;2022-11-25T02:16:57;24.70;35.60
37868;DHT22;24011;48.880;9.190;2022-11-25T02:20:07;24.70;36.30
37868;DHT22;24011;48.880;9.190;2022-11-25T02:23:16;24.60;35.60
37868;DHT22;24011;48.880;9.190;2022-11-25T02:26:29;24.70;35.70
37868;DHT22;24011;48.880;9.190;2022-11-25T02:29:29;24.70;35.70
37868;DHT22;24011;48.880;9.190;2022-11-25T02:32:46;24.60;35.70
37868;DHT22;24011;48.880;9.190;2022-11-25T02:35:53;24.70;35.60
37868;DHT22;24011;48.880;9.190;2022-11-25T02:38:59;24.60;35.70
37868;DHT22;24011;48.880;9.190;2022-11-25T02:42:11;24.60;35.80
37868;DHT22;24011;48.880;9.190;2022-11-25T02:45:13;24.60;35.70
37868;DHT22;24011;48.880;9.190;2022-11-25T02:48:35;24.60;35.80
37868;DHT22;24011;48.880;9.190;2022-11-25T02:52:13;24.60;35.80
37868;DHT22;24011;48.880;9.190;2022-11-25T02:55:25;24.60;36.40
37868;DHT22;24011;48.880;9.190;2022-11-25T02:58:59;24.60;35.70
37868;DHT22;24011;48.880;9.190;2022-11-25T03:02:25;24.60;35.70
37868;DHT22;24011;48.880;9.190;2022-11-25T03:05:55;24.60;35.70
37868;DHT22;24011;48.880;9.190;2022-11-25T03:09:37;24.60;35.60
37868;DHT22;24011;48.880;9.190;2022-11-25T03:13:25;24.70;35.70
37868;DHT22;24011;48.880;9.190;2022-11-25T03:16:55;24.60;35.70
37868;DHT22;24011;48.880;9.190;2022-11-25T03:20:25;24.60;35.70
37868;DHT22;24011;48.880;9.190;2022-11-25T03:23:43;24.60;35.70
37868;DHT22;24011;48.880;9.190;2022-11-25T03:26:55;24.60;35.80
37868;DHT22;24011;48.880;9.190;2022-11-25T03:29:51;24.60;35.80
37868;DHT22;24011;48.880;9.190;2022-11-25T03:33:01;24.60;35.80
37868;DHT22;24011;48.880;9.190;2022-11-25T03:35:55;24.60;35.80
37868;DHT22;24011;48.880;9.190;2022-11-25T03:39:01;24.60;35.80
37868;DHT22;24011;48.880;9.190;2022-11-25T03:42:25;24.60;35.90
37868;DHT22;24011;48.880;9.190;2022-11-25T03:45:31;24.60;35.80
37868;DHT22;24011;48.880;9.190;2022-11-25T03:48:42;24.60;35.80
37868;DHT22;24011;48.880;9.190;2022-11-25T03:51:37;24.50;35.80
37868;DHT22;24011;48.880;9.190;2022-11-25T03:54:43;24.50;35.80
37868;DHT22;24011;48.880;9.190;2022-11-25T03:57:49;24.50;35.80
37868;DHT22;24011;48.880;9.190;2022-11-25T04:01:13;24.50;35.80
37868;DHT22;24011;48.880;9.190;2022-11-25T04:04:31;24.50;35.90
37868;DHT22;24011;48.880;9.190;2022-11-25T04:07:27;24.60;35.80
37868;DHT22;24011;48.880;9.190;2022-11-25T04:10:38;24.40;35.60
37868;DHT22;24011;48.880;9.190;2022-11-25T04:13:39;24.40;35.70
37868;DHT22;24011;48.880;9.190;2022-11-25T04:17:03;24.30;35.60
37868;DHT22;24011;48.880;9.190;2022-11-25T04:20:39;24.40;35.60
37868;DHT22;24011;48.880;9.190;2022-11-25T04:24:03;24.40;35.30
37868;DHT22;24011;48.880;9.190;2022-11-25T04:27:33;24.50;35.40
37868;DHT22;24011;48.880;9.190;2022-11-25T04:30:57;24.50;35.40
37868;DHT22;24011;48.880;9.190;2022-11-25T04:34:44;24.60;35.30
37868;DHT22;24011;48.880;9.190;2022-11-25T04:38:39;24.60;35.40
37868;DHT22;24011;48.880;9.190;2022-11-25T04:42:08;24.60;35.40
37868;DHT22;24011;48.880;9.190;2022-11-25T04:45:34;24.50;35.60
37868;DHT22;24011;48.880;9.190;2022-11-25T04:48:58;24.40;35.90
37868;DHT22;24011;48.880;9.190;2022-11-25T04:52:44;24.50;35.90
37868;DHT22;24011;48.880;9.190;2022-11-25T04:56:21;24.60;35.70
37868;DHT22;24011;48.880;9.190;2022-11-25T04:59:38;24.60;36.40
37868;DHT22;24011;48.880;9.190;2022-11-25T05:02:32;24.60;35.80
37868;DHT22;24011;48.880;9.190;2022-11-25T05:05:38;24.70;35.70
37868;DHT22;24011;48.880;9.190;2022-11-25T05:08:50;24.70;35.70
37868;DHT22;24011;48.880;9.190;2022-11-25T05:12:14;24.70;35.60
37868;DHT22;24011;48.880;9.190;2022-11-25T05:15:46;24.70;35.60
37868;DHT22;24011;48.880;9.190;2022-11-25T05:19:13;24.60;35.80
37868;DHT22;24011;48.880;9.190;2022-11-25T05:22:28;24.50;36.10
37868;DHT22;24011;48.880;9.190;2022-11-25T05:25:44;24.70;36.00
37868;DHT22;24011;48.880;9.190;2022-11-25T05:29:04;24.60;36.00
37868;DHT22;24011;48.880;9.190;2022-11-25T05:32:28;24.70;36.10
37868;DHT22;24011;48.880;9.190;2022-11-25T05:35:44;24.60;36.10
37868;DHT22;24011;48.880;9.190;2022-11-25T05:38:52;24.50;36.30
37868;DHT22;24011;48.880;9.190;2022-11-25T05:46:50;24.80;36.00
37868;DHT22;24011;48.880;9.190;2022-11-25T05:50:10;24.80;36.00
37868;DHT22;24011;48.880;9.190;2022-11-25T05:56:52;24.80;35.80
37868;DHT22;24011;48.880;9.190;2022-11-25T06:00:08;24.80;35.70
37868;DHT22;24011;48.880;9.190;2022-11-25T06:03:44;24.80;35.80
37868;DHT22;24011;48.880;9.190;2022-11-25T06:06:46;24.80;35.70
37868;DHT22;24011;48.880;9.190;2022-11-25T06:10:01;24.80;35.70
37868;DHT22;24011;48.880;9.190;2022-11-25T06:13:08;24.80;35.70
37868;DHT22;24011;48.880;9.190;2022-11-25T06:16:33;24.90;35.20
37868;DHT22;24011;48.880;9.190;2022-11-25T06:19:41;24.70;34.50
37868;DHT22;24011;48.880;9.190;2022-11-25T06:32:32;24.70;34.90
37868;DHT22;24011;48.880;9.190;2022-11-25T07:24:42;24.80;35.40
37868;DHT22;24011;48.880;9.190;2022-11-25T07:27:52;24.70;35.50
37868;DHT22;24011;48.880;9.190;2022-11-25T07:31:43;24.90;35.40
37868;DHT22;24011;48.880;9.190;2022-11-25T07:44:12;24.90;35.20
37868;DHT22;24011;48.880;9.190;2022-11-25T07:48:22;24.80;35.30
37868;DHT22;24011;48.880;9.190;2022-11-25T07:56:22;24.80;35.30
37868;DHT22;24011;48.880;9.190;2022-11-25T08:33:39;25.10;35.20
37868;DHT22;24011;48.880;9.190;2022-11-25T08:36:35;25.10;35.10
37868;DHT22;24011;48.880;9.190;2022-11-25T08:39:35;25.10;35.20
37868;DHT22;24011;48.880;9.190;2022-11-25T08:42:25;25.10;35.40
37868;DHT22;24011;48.880;9.190;2022-11-25T08:45:43;25.10;35.20
37868;DHT22;24011;48.880;9.190;2022-11-25T08:48:44;25.00;35.20
37868;DHT22;24011;48.880;9.190;2022-11-25T08:51:31;25.00;35.00
37868;DHT22;24011;48.880;9.190;2022-11-25T08:54:44;25.00;35.00
37868;DHT22;24011;48.880;9.190;2022-11-25T08:57:31;24.90;35.30
37868;DHT22;24011;48.880;9.190;2022-11-25T09:00:20;24.90;35.40
37868;DHT22;24011;48.880;9.190;2022-11-25T09:02:57;25.00;35.30
37868;DHT22;24011;48.880;9.190;2022-11-25T09:10:31;24.80;35.60
37868;DHT22;24011;48.880;9.190;2022-11-25T09:13:49;25.00;35.60
37868;DHT22;24011;48.880;9.190;2022-11-25T09:16:36;25.00;35.60
37868;DHT22;24011;48.880;9.190;2022-11-25T09:20:08;25.00;35.90
37868;DHT22;24011;48.880;9.190;2022-11-25T09:23:55;25.30;35.60
37868;DHT22;24011;48.880;9.190;2022-11-25T09:27:08;25.40;35.30
37868;DHT22;24011;48.880;9.190;2022-11-25T09:30:09;25.50;35.20
37868;DHT22;24011;48.880;9.190;2022-11-25T09:33:21;25.60;35.20
37868;DHT22;24011;48.880;9.190;2022-11-25T09:36:27;25.50;35.10
37868;DHT22;24011;48.880;9.190;2022-11-25T09:39:27;25.50;35.20
37868;DHT22;24011;48.880;9.190;2022-11-25T09:42:38;25.50;35.20
37868;DHT22;24011;48.880;9.190;2022-11-25T09:45:56;25.50;35.20
37868;DHT22;24011;48.880;9.190;2022-11-25T09:52:51;25.50;35.30
37868;DHT22;24011;48.880;9.190;2022-11-25T09:56:03;25.50;35.30
37868;DHT22;24011;48.880;9.190;2022-11-25T09:59:20;25.40;35.40
37868;DHT22;24011;48.880;9.190;2022-11-25T10:02:20;25.50;35.40
37868;DHT22;24011;48.880;9.190;2022-11-25T10:05:20;25.40;35.30
37868;DHT22;24011;48.880;9.190;2022-11-25T10:12:12;25.40;35.60
37868;DHT22;24011;48.880;9.190;2022-11-25T10:41:32;25.60;35.20
37868;DHT22;24011;48.880;9.190;2022-11-25T10:44:33;25.50;35.20
37868;DHT22;24011;48.880;9.190;2022-11-25T10:47:44;25.50;35.30
37868;DHT22;24011;48.880;9.190;2022-11-25T10:50:46;25.50;35.30
37868;DHT22;24011;48.880;9.190;2022-11-25T10:54:54;25.50;35.30
37868;DHT22;24011;48.880;9.190;2022-11-25T13:16:02;25.50;35.70
37868;DHT22;24011;48.880;9.190;2022-11-25T13:18:52;25.30;35.80
37868;DHT22;24011;48.880;9.190;2022-11-25T13:22:01;25.40;35.80
37868;DHT22;24011;48.880;9.190;2022-11-25T13:24:59;25.50;35.70
37868;DHT22;24011;48.880;9.190;2022-11-25T13:28:25;25.50;35.70
37868;DHT22;24011;48.880;9.190;2022-11-25T13:35:50;25.50;35.60
37868;DHT22;24011;48.880;9.190;2022-11-25T13:39:10;25.50;35.80
37868;DHT22;24011;48.880;9.190;2022-11-25T13:42:20;25.50;35.70
37868;DHT22;24011;48.880;9.190;2022-11-25T13:45:29;25.50;35.60
37868;DHT22;24011;48.880;9.190;2022-11-25T13:48:31;25.40;35.50
37868;DHT22;24011;48.880;9.190;2022-11-25T13:51:51;25.40;35.70
37868;DHT22;24011;48.880;9.190;2022-11-25T13:55:32;25.50;35.60
37868;DHT22;24011;48.880;9.190;2022-11-25T13:58:26;25.50;35.60
37868;DHT22;24011;48.880;9.190;2022-11-25T14:01:32;25.60;35.60
37868;DHT22;24011;48.880;9.190;2022-11-25T14:04:37;25.60;35.40
37868;DHT22;24011;48.880;9.190;2022-11-25T14:07:48;25.60;35.40
37868;DHT22;24011;48.880;9.190;2022-11-25T14:11:02;25.60;35.40
37868;DHT22;24011;48.880;9.190;2022-11-25T14:14:24;25.60;35.40
37868;DHT22;24011;48.880;9.190;2022-11-25T14:17:42;25.60;35.40
37868;DHT22;24011;48.880;9.190;2022-11-25T14:20:56;25.70;35.30
37868;DHT22;24011;48.880;9.190;2022-11-25T14:24:09;25.60;35.20
37868;DHT22;24011;48.880;9.190;2022-11-25T14:27:04;25.70;35.30
37868;DHT22;24011;48.880;9.190;2022-11-25T14:30:10;25.60;35.40
37868;DHT22;24011;48.880;9.190;2022-11-25T14:33:05;25.60;35.30
37868;DHT22;24011;48.880;9.190;2022-11-25T14:35:57;25.60;35.40
37868;DHT22;24011;48.880;9.190;2022-11-25T14:39:04;25.50;35.30
37868;DHT22;24011;48.880;9.190;2022-11-25T14:42:10;25.60;35.40
37868;DHT22;24011;48.880;9.190;2022-11-25T14:44:58;25.50;35.30
37868;DHT22;24011;48.880;9.190;2022-11-25T14:48:24;25.60;35.40
37868;DHT22;24011;48.880;9.190;2022-11-25T14:51:32;25.60;35.40
37868;DHT22;24011;48.880;9.190;2022-11-25T14:54:49;25.60;35.60
37868;DHT22;24011;48.880;9.190;2022-11-25T14:58:22;25.60;35.60
37868;DHT22;24011;48.880;9.190;2022-11-25T15:01:58;25.50;35.50
37868;DHT22;24011;48.880;9.190;2022-11-25T15:04:40;25.50;35.50
37868;DHT22;24011;48.880;9.190;2022-11-25T15:08:38;25.40;35.50
37868;DHT22;24011;48.880;9.190;2022-11-25T15:11:34;25.50;35.80
37868;DHT22;24011;48.880;9.190;2022-11-25T15:14:40;25.40;35.60
37868;DHT22;24011;48.880;9.190;2022-11-25T15:17:46;25.50;35.70
37868;DHT22;24011;48.880;9.190;2022-11-25T15:20:57;25.40;35.60
37868;DHT22;24011;48.880;9.190;2022-11-25T15:23:51;25.50;35.50
37868;DHT22;24011;48.880;9.190;2022-11-25T15:27:00;25.50;35.50
37868;DHT22;24011;48.880;9.190;2022-11-25T15:30:15;25.50;35.50
37868;DHT22;24011;48.880;9.190;2022-11-25T15:33:21;25.50;35.40
37868;DHT22;24011;48.880;9.190;2022-11-25T15:36:26;25.50;35.40
37868;DHT22;24011;48.880;9.190;2022-11-25T15:39:50;25.50;35.30
37868;DHT22;24011;48.880;9.190;2022-11-25T15:43:23;25.50;35.30
37868;DHT22;24011;48.880;9.190;2022-11-25T15:46:09;25.40;35.30
37868;DHT22;24011;48.880;9.190;2022-11-25T15:49:16;25.50;35.30
37868;DHT22;24011;48.880;9.190;2022-11-25T15:52:26;25.40;35.30
37868;DHT22;24011;48.880;9.190;2022-11-25T15:55:35;25.40;35.30
37868;DHT22;24011;48.880;9.190;2022-11-25T15:58:41;25.50;35.30
37868;DHT22;24011;48.880;9.190;2022-11-25T16:01:43;25.40;35.30
37868;DHT22;24011;48.880;9.190;2022-11-25T16:04:43;25.40;35.30
37868;DHT22;24011;48.880;9.190;2022-11-25T16:07:26;25.50;35.30
37868;DHT22;24011;48.880;9.190;2022-11-25T16:13:51;25.40;35.30
37868;DHT22;24011;48.880;9.190;2022-11-25T16:17:07;25.30;35.20
37868;DHT22;24011;48.880;9.190;2022-11-25T16:20:21;25.20;35.20
37868;DHT22;24011;48.880;9.190;2022-11-25T16:23:33;25.30;35.20
37868;DHT22;24011;48.880;9.190;2022-11-25T16:26:52;25.40;35.30
37868;DHT22;24011;48.880;9.190;2022-11-25T16:30:16;25.40;35.30
37868;DHT22;24011;48.880;9.190;2022-11-25T16:33:26;25.40;35.10
37868;DHT22;24011;48.880;9.190;2022-11-25T16:36:32;25.40;35.10
37868;DHT22;24011;48.880;9.190;2022-11-25T16:39:39;25.40;35.10
37868;DHT22;24011;48.880;9.190;2022-11-25T16:42:51;25.40;35.20
37868;DHT22;24011;48.880;9.190;2022-11-25T16:46:05;25.40;35.20
37868;DHT22;24011;48.880;9.190;2022-11-25T16:49:35;25.40;35.10
37868;DHT22;24011;48.880;9.190;2022-11-25T16:52:59;25.40;35.10
37868;DHT22;24011;48.880;9.190;2022-11-25T16:56:34;25.30;35.20
37868;DHT22;24011;48.880;9.190;2022-11-25T17:00:05;25.30;35.10
37868;DHT22;24011;48.880;9.190;2022-11-25T17:03:40;25.30;35.20
37868;DHT22;24011;48.880;9.190;2022-11-25T17:07:07;25.20;35.20
37868;DHT22;24011;48.880;9.190;2022-11-25T17:10:34;25.20;35.40
37868;DHT22;24011;48.880;9.190;2022-11-25T17:13:40;25.30;35.30
37868;DHT22;24011;48.880;9.190;2022-11-25T17:17:04;25.20;35.20
37868;DHT22;24011;48.880;9.190;2022-11-25T17:23:22;25.30;35.20
37868;DHT22;24011;48.880;9.190;2022-11-25T17:26:39;25.30;35.20
37868;DHT22;24011;48.880;9.190;2022-11-25T17:29:36;25.40;35.10
37868;DHT22;24011;48.880;9.190;2022-11-25T17:32:46;25.30;35.00
37868;DHT22;24011;48.880;9.190;2022-11-25T17:35:58;25.30;35.20
37868;DHT22;24011;48.880;9.190;2022-11-25T17:39:04;25.30;35.10
37868;DHT22;24011;48.880;9.190;2022-11-25T17:42:12;25.30;35.10
37868;DHT22;24011;48.880;9.190;2022-11-25T17:45:18;25.30;35.00
37868;DHT22;24011;48.880;9.190;2022-11-25T17:48:34;25.20;35.20
37868;DHT22;24011;48.880;9.190;2022-11-25T17:51:46;25.30;35.10
37868;DHT22;24011;48.880;9.190;2022-11-25T17:54:52;25.30;34.90
37868;DHT22;24011;48.880;9.190;2022-11-25T17:58:16;25.30;35.00
37868;DHT22;24011;48.880;9.190;2022-11-25T18:01:46;25.30;35.00
37868;DHT22;24011;48.880;9.190;2022-11-25T18:05:40;25.40;34.90
37868;DHT22;24011;48.880;9.190;2022-11-25T18:09:04;25.30;35.00
37868;DHT22;24011;48.880;9.190;2022-11-25T18:12:47;25.40;34.90
37868;DHT22;24011;48.880;9.190;2022-11-25T18:16:35;25.40;34.80
37868;DHT22;24011;48.880;9.190;2022-11-25T18:20:23;25.40;34.80
37868;DHT22;24011;48.880;9.190;2022-11-25T18:24:04;25.50;34.70
37868;DHT22;24011;48.880;9.190;2022-11-25T18:27:34;25.30;34.80
37868;DHT22;24011;48.880;9.190;2022-11-25T18:30:53;25.30;34.80
37868;DHT22;24011;48.880;9.190;2022-11-25T18:34:41;25.30;34.70
37868;DHT22;24011;48.880;9.190;2022-11-25T18:38:41;25.40;34.70
37868;DHT22;24011;48.880;9.190;2022-11-25T18:46:04;25.30;34.60
37868;DHT22;24011;48.880;9.190;2022-11-25T18:49:53;25.20;34.70
37868;DHT22;24011;48.880;9.190;2022-11-25T18:53:35;25.40;34.70
37868;DHT22;24011;48.880;9.190;2022-11-25T18:57:35;25.20;34.60
37868;DHT22;24011;48.880;9.190;2022-11-25T19:01:17;25.30;34.70
37868;DHT22;24011;48.880;9.190;2022-11-25T19:04:47;25.40;34.60
37868;DHT22;24011;48.880;9.190;2022-11-25T19:08:23;25.40;34.50
37868;DHT22;24011;48.880;9.190;2022-11-25T19:12:35;25.40;34.60
37868;DHT22;24011;48.880;9.190;2022-11-25T19:40:41;25.30;34.70
37868;DHT22;24011;48.880;9.190;2022-11-25T19:44:51;25.30;34.70
37868;DHT22;24011;48.880;9.190;2022-11-25T19:48:51;25.30;34.80
37868;DHT22;24011;48.880;9.190;2022-11-25T19:52:41;25.30;34.80
37868;DHT22;24011;48.880;9.190;2022-11-25T20:12:36;25.30;34.80
37868;DHT22;24011;48.880;9.190;2022-11-25T20:36:36;25.30;34.90
37868;DHT22;24011;48.880;9.190;2022-11-25T20:40:12;25.40;35.00
37868;DHT22;24011;48.880;9.190;2022-11-25T20:43:36;25.30;34.90
37868;DHT22;24011;48.880;9.190;2022-11-25T20:47:00;25.30;34.90
37868;DHT22;24011;48.880;9.190;2022-11-25T20:50:26;25.40;35.10
37868;DHT22;24011;48.880;9.190;2022-11-25T20:54:08;25.30;35.00
37868;DHT22;24011;48.880;9.190;2022-11-25T20:57:31;25.30;35.00
37868;DHT22;24011;48.880;9.190;2022-11-25T21:01:01;25.30;35.00
37868;DHT22;24011;48.880;9.190;2022-11-25T21:04:25;25.30;35.00
37868;DHT22;24011;48.880;9.190;2022-11-25T21:07:31;25.30;35.00
37868;DHT22;24011;48.880;9.190;2022-11-25T21:10:49;25.30;35.10
37868;DHT22;24011;48.880;9.190;2022-11-25T21:14:19;25.30;35.10
37868;DHT22;24011;48.880;9.190;2022-11-25T21:17:54;25.30;35.10
37868;DHT22;24011;48.880;9.190;2022-11-25T21:22:01;25.30;35.20
37868;DHT22;24011;48.880;9.190;2022-11-25T21:25:38;25.30;35.20
37868;DHT22;24011;48.880;9.190;2022-11-25T21:28:45;25.20;35.20
37868;DHT22;24011;48.880;9.190;2022-11-25T21:31:49;25.20;35.20
37868;DHT22;24011;48.880;9.190;2022-11-25T21:35:02;25.30;35.20
37868;DHT22;24011;48.880;9.190;2022-11-25T21:38:10;25.30;35.80
37868;DHT22;24011;48.880;9.190;2022-11-25T21:41:37;25.30;35.20
37868;DHT22;24011;48.880;9.190;2022-11-25T21:44:39;25.20;35.80
37868;DHT22;24011;48.880;9.190;2022-11-25T21:47:55;25.20;35.20
37868;DHT22;24011;48.880;9.190;2022-11-25T21:51:02;25.20;35.30
37868;DHT22;24011;48.880;9.190;2022-11-25T21:54:16;25.20;35.30
37868;DHT22;24011;48.880;9.190;2022-11-25T21:57:38;25.20;35.40
37868;DHT22;24011;48.880;9.190;2022-11-25T22:00:40;25.20;35.40
37868;DHT22;24011;48.880;9.190;2022-11-25T22:03:38;25.10;35.40
37868;DHT22;24011;48.880;9.190;2022-11-25T22:06:32;25.10;35.30
37868;DHT22;24011;48.880;9.190;2022-11-25T22:09:38;25.20;35.40
37868;DHT22;24011;48.880;9.190;2022-11-25T22:13:02;25.20;35.40
37868;DHT22;24011;48.880;9.190;2022-11-25T22:16:09;25.10;35.40
37868;DHT22;24011;48.880;9.190;2022-11-25T22:19:27;25.10;35.40
37868;DHT22;24011;48.880;9.190;2022-11-25T22:22:35;25.10;35.50
37868;DHT22;24011;48.880;9.190;2022-11-25T22:26:02;25.10;35.40
37868;DHT22;24011;48.880;9.190;2022-11-25T22:29:07;25.10;35.40
37868;DHT22;24011;48.880;9.190;2022-11-25T22:32:20;25.10;35.50
37868;DHT22;24011;48.880;9.190;2022-11-25T22:35:14;25.10;35.50
37868;DHT22;24011;48.880;9.190;2022-11-25T22:38:24;25.10;35.50
37868;DHT22;24011;48.880;9.190;2022-11-25T22:41:20;25.10;35.50
37868;DHT22;24011;48.880;9.190;2022-11-25T22:44:54;25.10;35.60
37868;DHT22;24011;48.880;9.190;2022-11-25T22:47:56;25.00;35.60
37868;DHT22;24011;48.880;9.190;2022-11-25T22:51:32;25.00;35.60
37868;DHT22;24011;48.880;9.190;2022-11-25T22:54:53;25.10;35.60
37868;DHT22;24011;48.880;9.190;2022-11-25T22:58:27;25.00;35.60
37868;DHT22;24011;48.880;9.190;2022-11-25T23:02:00;25.00;35.60
37868;DHT22;24011;48.880;9.190;2022-11-25T23:05:21;25.00;35.60
37868;DHT22;24011;48.880;9.190;2022-11-25T23:08:47;25.00;35.60
37868;DHT22;24011;48.880;9.190;2022-11-25T23:12:20;25.00;35.60
37868;DHT22;24011;48.880;9.190;2022-11-25T23:15:45;25.00;35.70
37868;DHT22;24011;48.880;9.190;2022-11-25T23:19:12;25.00;35.70
37868;DHT22;24011;48.880;9.190;2022-11-25T23:22:29;25.00;35.70
37868;DHT22;24011;48.880;9.190;2022-11-25T23:25:58;24.90;35.70
37868;DHT22;24011;48.880;9.190;2022-11-25T23:29:27;25.00;35.80
37868;DHT22;24011;48.880;9.190;2022-11-25T23:32:57;24.90;35.70
37868;DHT22;24011;48.880;9.190;2022-11-25T23:36:23;24.90;35.70
37868;DHT22;24011;48.880;9.190;2022-11-25T23:39:59;24.90;35.80
37868;DHT22;24011;48.880;9.190;2022-11-25T23:43:23;24.90;35.90
37868;DHT22;24011;48.880;9.190;2022-11-25T23:47:00;24.90;35.90
37868;DHT22;24011;48.880;9.190;2022-11-25T23:50:29;24.90;35.90
37868;DHT22;24011;48.880;9.190;2022-11-25T23:54:21;24.90;35.80
37868;DHT22;24011;48.880;9.190;2022-11-25T23:57:46;24.90;35.90
